Time;durP1;ratioP1;P1;durP2;ratioP2;P2;SDS_P1;SDS_P2;PMS_P1;PMS_P2;Temp;Humidity;BMP_temperature;BMP_pressure;BME280_temperature;BME280_humidity;BME280_pressure;Samples;Min_cycle;Max_cycle;Signal;HPM_P1;HPM_P2
2021/01/04 00:01:43;;;;;;;68.55;22.40;;;;;;;1.16;100.00;97445.78;4990631;28;20481;-78
2021/01/04 00:04:34;;;;;;;73.82;21.02;;;;;;;1.11;100.00;97437.75;5001303;28;20049;-78
2021/01/04 00:07:20;;;;;;;67.88;20.60;;;;;;;0.94;100.00;97431.78;5000536;28;20060;-79
2021/01/04 00:10:10;;;;;;;80.57;21.13;;;;;;;1.01;100.00;97446.47;5015005;28;20334;-79
2021/01/04 00:12:55;;;;;;;74.20;21.70;;;;;;;1.06;100.00;97441.16;5020832;28;20401;-78
2021/01/04 00:15:58;;;;;;;53.88;20.63;;;;;;;1.06;100.00;97449.16;5015055;28;20053;-78
2021/01/04 00:18:31;;;;;;;71.82;21.58;;;;;;;1.08;100.00;97440.94;5024891;28;20124;-78
2021/01/04 00:21:13;;;;;;;73.70;20.75;;;;;;;1.13;100.00;97440.94;5023616;28;20049;-78
2021/01/04 00:24:01;;;;;;;75.15;21.95;;;;;;;1.06;100.00;97440.34;4995129;28;20269;-78
2021/01/04 00:26:45;;;;;;;58.55;19.02;;;;;;;1.05;100.00;97439.56;5009879;28;20046;-77
2021/01/04 00:29:12;;;;;;;55.08;20.70;;;;;;;1.03;100.00;97449.69;5015193;28;20057;-80
2021/01/04 00:31:44;;;;;;;90.10;21.35;;;;;;;1.03;100.00;97439.00;5015830;28;20042;-79
2021/01/04 00:34:16;;;;;;;69.35;20.40;;;;;;;0.97;100.00;97429.41;5011815;28;20041;-78
2021/01/04 00:37:08;;;;;;;59.58;20.10;;;;;;;0.97;100.00;97431.25;5017180;28;20421;-79
2021/01/04 00:39:40;;;;;;;96.93;20.30;;;;;;;0.95;100.00;97446.72;4992774;28;20111;-78
2021/01/04 00:42:13;;;;;;;49.38;20.27;;;;;;;0.99;100.00;97434.47;4977848;28;20129;-79
2021/01/04 00:44:55;;;;;;;56.33;19.90;;;;;;;0.99;100.00;97434.47;5011018;28;20420;-78
2021/01/04 00:47:35;;;;;;;55.67;20.65;;;;;;;0.97;100.00;97439.25;5017920;28;20042;-78
2021/01/04 00:50:19;;;;;;;51.50;20.25;;;;;;;0.99;100.00;97439.78;5028069;28;20045;-78
2021/01/04 00:52:56;;;;;;;55.60;20.10;;;;;;;1.02;100.00;97437.44;5013849;28;20046;-79
2021/01/04 00:55:47;;;;;;;83.43;21.20;;;;;;;0.87;100.00;97439.19;5003809;28;20046;-78
2021/01/04 00:58:33;;;;;;;73.47;20.63;;;;;;;0.91;100.00;97456.25;4977352;28;20046;-78
2021/01/04 01:01:41;;;;;;;55.42;19.15;;;;;;;0.87;100.00;97442.69;4985332;28;20041;-78
2021/01/04 01:04:16;;;;;;;77.18;20.50;;;;;;;0.89;100.00;97451.22;4965346;28;20061;-77
2021/01/04 01:06:51;;;;;;;79.70;21.10;;;;;;;0.87;100.00;97447.19;5015898;28;20497;-77
2021/01/04 01:09:19;;;;;;;48.97;20.13;;;;;;;0.82;100.00;97455.97;5015240;28;20046;-77
2021/01/04 01:12:10;;;;;;;46.22;20.52;;;;;;;0.88;100.00;97459.47;5015688;28;20050;-78
2021/01/04 01:15:10;;;;;;;47.92;20.13;;;;;;;0.95;100.00;97463.50;5012656;28;20061;-77
2021/01/04 01:17:38;;;;;;;52.55;18.90;;;;;;;1.00;100.00;97470.72;5015459;28;20061;-77
2021/01/04 01:20:07;;;;;;;46.25;19.33;;;;;;;0.99;100.00;97461.13;5014815;28;20061;-77
2021/01/04 01:22:38;;;;;;;44.95;18.90;;;;;;;0.97;100.00;97460.56;5021356;28;20476;-78
2021/01/04 01:25:35;;;;;;;45.38;18.67;;;;;;;0.89;100.00;97445.88;5014631;28;20050;-77
2021/01/04 01:28:27;;;;;;;48.42;19.75;;;;;;;1.05;100.00;97457.44;5005235;28;20054;-78
2021/01/04 01:33:34;;;;;;;60.35;21.20;;;;;;;0.69;100.00;97431.63;4994611;28;20137;-84
2021/01/04 01:36:15;;;;;;;45.70;19.27;;;;;;;0.79;100.00;97440.50;4945940;28;20047;-84
2021/01/04 01:39:20;;;;;;;43.67;19.05;;;;;;;0.82;100.00;97465.81;4979948;28;20041;-85
2021/01/04 01:41:56;;;;;;;46.50;18.98;;;;;;;0.88;100.00;97457.59;4922094;29;20134;-86
2021/01/04 01:44:28;;;;;;;47.03;18.80;;;;;;;0.86;100.00;97472.22;4940199;29;20491;-83
2021/01/04 01:47:16;;;;;;;46.88;19.33;;;;;;;0.81;100.00;97458.88;5031344;23;20128;-80
2021/01/04 01:50:32;;;;;;;43.83;18.40;;;;;;;0.93;100.00;97465.59;5023633;28;20423;-80
2021/01/04 01:53:53;;;;;;;41.35;18.05;;;;;;;0.78;100.00;97457.53;5013425;28;20635;-79
2021/01/04 01:57:12;;;;;;;43.15;17.48;;;;;;;0.92;100.00;97476.53;5022540;28;20125;-80
2021/01/04 02:00:34;;;;;;;39.70;17.35;;;;;;;0.91;100.00;97474.91;5022072;28;20034;-81
2021/01/04 02:03:57;;;;;;;45.95;17.45;;;;;;;0.88;100.00;97468.25;5038215;28;20091;-81
2021/01/04 02:07:12;;;;;;;47.03;17.50;;;;;;;0.96;100.00;97466.94;5040866;28;20559;-80
2021/01/04 02:10:11;;;;;;;43.58;17.13;;;;;;;0.79;100.00;97447.69;5023295;28;20045;-80
2021/01/04 02:13:02;;;;;;;57.53;17.13;;;;;;;0.93;100.00;97481.59;5026221;28;20042;-79
2021/01/04 02:15:50;;;;;;;99.00;17.30;;;;;;;0.69;100.00;97453.75;5042123;28;20049;-79
2021/01/04 02:19:43;;;;;;;;;;;;;;;;;;;;;
2021/01/04 02:23:17;;;;;;;84.55;17.77;;;;;;;0.70;100.00;97475.88;5003893;28;20502;-79
2021/01/04 02:26:37;;;;;;;82.72;17.38;;;;;;;0.71;100.00;97467.59;4971464;28;20212;-80
2021/01/04 02:29:20;;;;;;;91.57;17.45;;;;;;;0.57;100.00;97442.44;5040306;28;20113;-79
2021/01/04 02:32:15;;;;;;;69.00;17.17;;;;;;;0.79;100.00;97461.00;5039207;28;20041;-79
2021/01/04 02:34:56;;;;;;;49.63;16.33;;;;;;;0.77;100.00;97460.47;5004784;28;20049;-79
2021/01/04 02:37:33;;;;;;;56.70;16.35;;;;;;;0.80;100.00;97451.94;5020158;28;20098;-80
2021/01/04 02:40:31;;;;;;;72.63;16.75;;;;;;;0.68;100.00;97452.13;5012703;28;20045;-79
2021/01/04 02:43:28;;;;;;;63.03;17.10;;;;;;;0.74;100.00;97463.63;5009095;28;20041;-79
2021/01/04 02:46:22;;;;;;;87.30;16.45;;;;;;;0.55;100.00;97449.91;5039148;28;20052;-79
2021/01/04 02:50:05;;;;;;;81.50;17.92;;;;;;;0.77;100.00;97479.91;5006544;28;20437;-80
2021/01/04 02:52:20;;;;;;;107.38;18.60;;;;;;;0.47;100.00;97447.72;5014518;28;20120;-79
2021/01/04 02:55:41;;;;;;;161.52;19.30;;;;;;;0.42;100.00;97450.34;5006011;28;20046;-77
2021/01/04 02:58:52;;;;;;;74.05;18.48;;;;;;;0.55;100.00;97458.69;5040025;28;20045;-79
2021/01/04 03:01:38;;;;;;;104.28;17.98;;;;;;;0.54;100.00;97445.66;5015645;28;20057;-80
2021/01/04 03:05:17;;;;;;;79.43;17.10;;;;;;;0.43;100.00;97442.09;5041667;28;20041;-79
2021/01/04 03:08:03;;;;;;;113.82;16.05;;;;;;;0.51;100.00;97464.78;5036923;28;20083;-79
2021/01/04 03:10:58;;;;;;;292.27;18.48;;;;;;;0.41;100.00;97446.09;5040727;28;20095;-79
2021/01/04 03:14:26;;;;;;;86.25;16.35;;;;;;;0.47;100.00;97461.81;4997121;28;20426;-79
2021/01/04 03:17:21;;;;;;;67.90;16.65;;;;;;;0.69;100.00;97476.91;4924491;29;20048;-79
2021/01/04 03:20:34;;;;;;;46.33;15.73;;;;;;;0.58;100.00;97458.19;4937738;28;20054;-79
2021/01/04 03:23:18;;;;;;;68.20;16.33;;;;;;;0.67;100.00;97468.38;4925090;29;20067;-80
2021/01/04 03:26:19;;;;;;;81.60;15.30;;;;;;;0.73;100.00;97481.47;4948873;28;20142;-80
2021/01/04 03:29:19;;;;;;;129.38;15.98;;;;;;;0.44;100.00;97462.31;4961693;28;20082;-80
2021/01/04 03:32:45;;;;;;;;;;;;;;;;;;;;;
2021/01/04 03:35:27;;;;;;;;;;;;;;;0.57;100.00;97482.41;4969485;29;20055;-80
2021/01/04 03:38:39;;;;;;;42.97;14.00;;;;;;;0.51;100.00;97468.28;5018763;28;19921;-80
2021/01/04 03:41:50;;;;;;;;;;;;;;;;;;;;;
2021/01/04 03:44:57;;;;;;;32.65;13.68;;;;;;;0.67;100.00;97476.38;5010055;28;20037;-79
2021/01/04 03:48:01;;;;;;;32.63;13.90;;;;;;;0.60;100.00;97465.91;5019512;28;20060;-79
2021/01/04 03:51:23;;;;;;;28.63;13.45;;;;;;;0.61;100.00;97471.00;5017319;28;20172;-79
2021/01/04 03:54:29;;;;;;;31.83;13.88;;;;;;;0.75;100.00;97483.88;5018869;28;20073;-79
2021/01/04 03:57:31;;;;;;;28.55;12.98;;;;;;;0.69;100.00;97467.06;4987760;28;20208;-79
2021/01/04 04:01:05;;;;;;;28.60;12.77;;;;;;;0.71;100.00;97464.94;5048144;28;20394;-79
2021/01/04 04:03:56;;;;;;;30.10;12.05;;;;;;;0.80;100.00;97486.59;5006203;28;20111;-79
2021/01/04 04:07:11;;;;;;;28.83;12.50;;;;;;;0.60;100.00;97460.59;5029371;28;20541;-79
2021/01/04 04:10:20;;;;;;;40.03;12.97;;;;;;;0.55;100.00;97450.72;5036344;28;20065;-79
2021/01/04 04:13:44;;;;;;;42.67;12.52;;;;;;;0.58;100.00;97476.03;5019430;28;20336;-80
2021/01/04 04:17:10;;;;;;;35.85;13.38;;;;;;;0.65;100.00;97479.28;5021763;28;20065;-79
2021/01/04 04:19:59;;;;;;;30.05;12.27;;;;;;;0.54;100.00;97459.75;5004480;28;20052;-79
2021/01/04 04:23:17;;;;;;;30.35;12.40;;;;;;;0.67;100.00;97482.50;5009684;28;20053;-80
2021/01/04 04:30:14;;;;;;;31.40;12.63;;;;;;;0.71;100.00;97480.91;5023422;28;20457;-79
2021/01/04 04:37:04;;;;;;;31.23;12.60;;;;;;;0.66;100.00;97490.72;5017101;28;20479;-79
2021/01/04 04:40:17;;;;;;;30.92;12.80;;;;;;;0.62;100.00;97493.09;5006677;28;20490;-79
2021/01/04 04:43:53;;;;;;;28.67;12.75;;;;;;;0.51;100.00;97475.44;4974234;28;20064;-79
2021/01/04 04:47:34;;;;;;;30.98;12.65;;;;;;;0.64;100.00;97491.00;5009475;28;20053;-79
2021/01/04 04:50:50;;;;;;;34.65;13.23;;;;;;;0.55;100.00;97488.00;5026473;28;20046;-80
2021/01/04 04:54:08;;;;;;;;;;;;;;;;;;;;;
2021/01/04 04:57:23;;;;;;;28.23;12.07;;;;;;;0.59;100.00;97488.28;5002398;28;20061;-80
2021/01/04 05:01:14;;;;;;;28.35;12.07;;;;;;;0.49;100.00;97467.69;5004982;28;20099;-79
2021/01/04 05:04:43;;;;;;;27.58;11.88;;;;;;;0.63;100.00;97486.72;4932009;29;20412;-78
2021/01/04 05:08:09;;;;;;;;;;;;;;;;;;;;;
2021/01/04 05:11:44;;;;;;;35.60;14.02;;;;;;;0.50;100.00;97469.31;4908201;29;20129;-80
2021/01/04 05:14:55;;;;;;;33.33;13.68;;;;;;;0.51;100.00;97464.78;4930884;28;20055;-79
2021/01/04 05:18:45;;;;;;;38.10;13.30;;;;;;;0.62;100.00;97485.91;4962234;28;20053;-80
2021/01/04 05:22:20;;;;;;;47.55;14.27;;;;;;;0.60;100.00;97485.38;4931854;28;20042;-80
2021/01/04 05:26:27;;;;;;;63.53;14.60;;;;;;;0.49;100.00;97475.69;4966602;28;20539;-79
2021/01/04 05:29:54;;;;;;;49.58;15.13;;;;;;;0.42;100.00;97514.22;5007660;28;20065;-78
2021/01/04 05:33:34;;;;;;;55.03;15.38;;;;;;;0.43;100.00;97494.56;5013272;28;20073;-80
2021/01/04 05:36:58;;;;;;;68.80;16.50;;;;;;;0.40;100.00;97487.06;4996767;28;20076;-79
2021/01/04 05:40:22;;;;;;;;;;;;;;;;;;;;;
2021/01/04 05:44:15;;;;;;;42.05;14.88;;;;;;;0.53;100.00;97497.28;5009411;28;20092;-79
2021/01/04 05:48:28;;;;;;;40.00;14.18;;;;;;;0.49;100.00;97496.22;4894933;29;20052;-80
2021/01/04 05:52:16;;;;;;;51.22;14.95;;;;;;;0.40;100.00;97482.53;4895693;29;20076;-78
2021/01/04 05:55:34;;;;;;;60.65;16.75;;;;;;;0.42;100.00;97488.41;4886092;29;20188;-79
2021/01/04 05:58:51;;;;;;;45.28;15.52;;;;;;;0.27;100.00;97461.66;4876010;29;20107;-78
2021/01/04 06:06:13;;;;;;;46.42;15.75;;;;;;;0.49;100.00;97496.97;4835343;29;20051;-78
2021/01/04 06:09:25;;;;;;;44.33;15.70;;;;;;;0.43;100.00;97484.72;4797826;29;20223;-78
2021/01/04 06:12:56;;;;;;;;;;;;;;;;;;;;;
2021/01/04 06:16:18;;;;;;;50.35;14.95;;;;;;;0.29;100.00;97464.06;4839460;29;20048;-78
2021/01/04 06:18:56;;;;;;;54.92;15.50;;;;;;;0.46;100.00;97486.88;4819186;29;20081;-78
2021/01/04 06:22:25;;;;;;;71.90;15.68;;;;;;;0.38;100.00;97475.88;4832204;29;20060;-79
2021/01/04 06:25:34;;;;;;;112.57;17.30;;;;;;;0.29;100.00;97482.69;4889856;29;20051;-79
2021/01/04 06:28:17;;;;;;;54.75;16.42;;;;;;;0.31;100.00;97473.41;4973473;28;20049;-78
2021/01/04 06:32:09;;;;;;;45.40;15.77;;;;;;;0.43;100.00;97503.34;5000104;28;20045;-78
2021/01/04 06:35:23;;;;;;;86.70;16.60;;;;;;;0.52;100.00;97514.31;4986771;28;20477;-78
2021/01/04 06:38:42;;;;;;;93.40;16.60;;;;;;;0.46;100.00;97528.66;5015042;28;20237;-79
2021/01/04 06:42:13;;;;;;;56.22;16.58;;;;;;;0.37;100.00;97496.34;5020314;28;20196;-79
2021/01/04 06:45:49;;;;;;;;;;;;;;;;;;;;;
2021/01/04 06:49:00;;;;;;;54.28;16.13;;;;;;;0.61;100.00;97518.13;5009491;28;19921;-79
2021/01/04 06:52:23;;;;;;;46.40;16.27;;;;;;;0.67;100.00;97534.97;5013505;28;20050;-79
2021/01/04 06:55:52;;;;;;;60.45;16.70;;;;;;;0.60;100.00;97529.84;5025554;28;20497;-79
2021/01/04 06:59:21;;;;;;;44.97;15.57;;;;;;;0.59;100.00;97531.69;5030760;28;20127;-80
2021/01/04 07:02:50;;;;;;;71.13;16.20;;;;;;;0.54;100.00;97533.53;4997829;28;20050;-80
2021/01/04 07:05:48;;;;;;;50.17;16.30;;;;;;;0.48;100.00;97535.34;5019590;28;20037;-79
2021/01/04 07:08:46;;;;;;;48.58;15.88;;;;;;;0.54;100.00;97544.19;5019752;28;20049;-79
2021/01/04 07:12:09;;;;;;;40.08;16.08;;;;;;;0.67;100.00;97540.28;5052338;28;20045;-79
2021/01/04 07:15:38;;;;;;;45.63;16.10;;;;;;;0.51;100.00;97528.72;4945270;29;20078;-79
2021/01/04 07:18:40;;;;;;;51.42;16.20;;;;;;;0.56;100.00;97542.06;4894373;29;20055;-79
2021/01/04 07:22:16;;;;;;;41.13;17.00;;;;;;;0.51;100.00;97534.03;5045169;28;20120;-79
2021/01/04 07:25:47;;;;;;;45.95;16.67;;;;;;;0.57;100.00;97554.31;5034218;28;20044;-79
2021/01/04 07:29:27;;;;;;;;;;;;;;;;;;;;;
2021/01/04 07:32:49;;;;;;;48.33;16.77;;;;;;;0.51;100.00;97536.69;5030925;23;20052;-79
2021/01/04 07:35:21;;;;;;;50.15;15.77;;;;;;;0.67;100.00;97565.06;4970186;28;20042;-78
2021/01/04 07:38:01;;;;;;;58.47;17.83;;;;;;;0.60;100.00;97567.13;5014705;28;20424;-80
2021/01/04 07:40:53;;;;;;;51.85;16.48;;;;;;;0.62;100.00;97562.34;5014023;28;20053;-80
2021/01/04 07:43:28;;;;;;;56.63;16.92;;;;;;;0.58;100.00;97566.56;5000193;28;20205;-78
2021/01/04 07:46:02;;;;;;;53.63;17.45;;;;;;;0.70;100.00;97567.22;4996464;28;20127;-78
2021/01/04 07:49:07;;;;;;;50.63;18.38;;;;;;;0.68;100.00;97560.53;4990472;28;20049;-79
2021/01/04 07:51:47;;;;;;;70.45;17.88;;;;;;;0.73;100.00;97574.69;4989741;28;20066;-77
2021/01/04 07:54:32;;;;;;;45.28;17.45;;;;;;;0.68;100.00;97574.66;5012758;28;20033;-78
2021/01/04 07:57:36;;;;;;;54.60;17.30;;;;;;;0.70;100.00;97569.09;4990147;28;20027;-79
2021/01/04 08:00:20;;;;;;;61.53;17.90;;;;;;;0.75;100.00;97569.91;5003828;28;20105;-79
2021/01/04 08:02:46;;;;;;;61.92;18.33;;;;;;;0.71;100.00;97579.47;5012876;28;20057;-81
2021/01/04 08:05:45;;;;;;;64.10;17.50;;;;;;;0.61;100.00;97563.41;5012270;28;20077;-78
2021/01/04 08:08:42;;;;;;;58.05;17.20;;;;;;;0.74;100.00;97573.66;4983014;28;20042;-79
2021/01/04 08:11:42;;;;;;;62.35;18.58;;;;;;;0.77;100.00;97572.34;4991652;28;20513;-78
2021/01/04 08:15:02;;;;;;;57.38;17.35;;;;;;;0.77;100.00;97565.16;5009725;28;20456;-81
2021/01/04 08:17:37;;;;;;;64.57;17.58;;;;;;;0.81;100.00;97578.75;4968899;28;20050;-78
2021/01/04 08:20:05;;;;;;;;;;;;;;;0.86;100.00;97573.47;5011405;28;20149;-81
2021/01/04 08:22:56;;;;;;;74.78;18.25;;;;;;;0.87;100.00;97580.41;5011206;28;19921;-79
2021/01/04 08:25:36;;;;;;;66.05;17.63;;;;;;;0.75;100.00;97582.47;4990424;28;20070;-77
2021/01/04 08:28:21;;;;;;;46.13;17.05;;;;;;;0.82;100.00;97589.19;5000362;28;20117;-79
2021/01/04 08:31:00;;;;;;;60.17;17.25;;;;;;;0.87;100.00;97586.56;4979788;28;20053;-78
2021/01/04 08:33:50;;;;;;;89.03;18.10;;;;;;;0.72;100.00;97585.63;4991350;28;20418;-79
2021/01/04 08:36:44;;;;;;;58.75;17.88;;;;;;;0.76;100.00;97592.03;5009934;28;20108;-78
2021/01/04 08:39:33;;;;;;;74.30;18.20;;;;;;;0.72;100.00;97594.41;5005463;28;20046;-79
2021/01/04 08:42:03;;;;;;;74.32;18.73;;;;;;;0.77;100.00;97585.66;5010018;28;20161;-79
2021/01/04 08:44:34;;;;;;;96.50;18.42;;;;;;;0.72;100.00;97583.78;5015926;28;20121;-78
2021/01/04 08:47:17;;;;;;;66.07;17.45;;;;;;;0.74;100.00;97588.81;5009828;28;20138;-78
2021/01/04 08:49:47;;;;;;;85.97;17.42;;;;;;;0.74;100.00;97600.28;4992980;28;20048;-78
2021/01/04 08:52:16;;;;;;;63.42;17.00;;;;;;;0.83;100.00;97590.75;4990596;28;20057;-79
2021/01/04 08:54:43;;;;;;;57.63;17.52;;;;;;;0.81;100.00;97586.75;4991062;28;20153;-80
2021/01/04 08:57:18;;;;;;;103.95;18.45;;;;;;;0.76;100.00;97590.19;4995258;28;20045;-81
2021/01/04 08:59:59;;;;;;;77.47;18.20;;;;;;;0.71;100.00;97597.31;5012780;28;20604;-80
2021/01/04 09:02:41;;;;;;;69.80;16.02;;;;;;;0.74;100.00;97586.16;4998969;28;20039;-78
2021/01/04 09:05:13;;;;;;;80.50;16.75;;;;;;;0.77;100.00;97583.81;4992541;28;20073;-78
2021/01/04 09:07:53;;;;;;;77.35;15.32;;;;;;;0.77;100.00;97605.13;4991374;28;20088;-79
2021/01/04 09:10:25;;;;;;;62.75;15.88;;;;;;;0.82;100.00;97593.69;4995633;28;20062;-80
2021/01/04 09:13:08;;;;;;;86.60;16.33;;;;;;;0.73;100.00;97604.00;4994330;28;20038;-78
2021/01/04 09:15:36;;;;;;;59.78;15.95;;;;;;;0.81;100.00;97606.22;4961230;28;20074;-78
2021/01/04 09:18:02;;;;;;;68.03;17.63;;;;;;;0.77;100.00;97605.13;4995303;28;20492;-79
2021/01/04 09:20:51;;;;;;;77.60;16.25;;;;;;;0.89;100.00;97607.59;4994606;28;20039;-79
2021/01/04 09:23:29;;;;;;;44.92;16.25;;;;;;;0.99;100.00;97624.50;5004274;28;20042;-79
2021/01/04 09:26:02;;;;;;;65.93;17.35;;;;;;;0.97;100.00;97615.13;4989039;28;20220;-78
2021/01/04 09:28:38;;;;;;;60.63;16.48;;;;;;;0.85;100.00;97603.84;5010725;28;20050;-76
2021/01/04 09:31:06;;;;;;;66.22;15.88;;;;;;;0.88;100.00;97608.69;5010624;28;20052;-78
2021/01/04 09:33:41;;;;;;;72.28;15.88;;;;;;;0.94;100.00;97611.13;5011839;28;20133;-79
2021/01/04 09:36:08;;;;;;;59.67;16.88;;;;;;;0.90;100.00;97612.69;4980917;28;20046;-80
2021/01/04 09:39:07;;;;;;;64.72;16.15;;;;;;;0.87;100.00;97620.38;4981565;28;20143;-80
2021/01/04 09:41:33;;;;;;;62.53;15.77;;;;;;;0.91;100.00;97626.81;4990565;28;20034;-80
2021/01/04 09:44:07;;;;;;;87.70;16.55;;;;;;;0.97;100.00;97625.81;4977851;28;20046;-79
2021/01/04 09:47:14;;;;;;;69.43;16.15;;;;;;;1.01;100.00;97616.22;4993499;28;20070;-79
2021/01/04 09:49:45;;;;;;;84.68;16.33;;;;;;;0.88;100.00;97604.13;4971309;28;20062;-78
2021/01/04 09:52:25;;;;;;;92.25;17.35;;;;;;;0.86;100.00;97616.09;4994827;28;20041;-80
2021/01/04 09:54:57;;;;;;;75.47;17.75;;;;;;;0.98;100.00;97601.56;4991980;28;20053;-79
2021/01/04 09:57:24;;;;;;;73.70;15.73;;;;;;;1.08;100.00;97600.84;4975879;28;20038;-80
2021/01/04 09:59:55;;;;;;;42.33;15.73;;;;;;;1.10;100.00;97594.22;4995511;28;20057;-78
2021/01/04 10:02:23;;;;;;;55.88;16.48;;;;;;;1.08;100.00;97604.31;4977621;28;20046;-77
2021/01/04 10:04:50;;;;;;;68.25;15.80;;;;;;;1.07;100.00;97591.22;4993355;28;20046;-79
2021/01/04 10:07:27;;;;;;;58.00;16.00;;;;;;;1.15;100.00;97596.09;5012521;28;20405;-79
2021/01/04 10:09:54;;;;;;;66.88;16.80;;;;;;;1.16;100.00;97584.38;5007175;28;20515;-77
2021/01/04 10:12:24;;;;;;;61.42;16.63;;;;;;;1.22;100.00;97592.16;5008613;28;20127;-77
2021/01/04 10:15:01;;;;;;;57.88;16.20;;;;;;;1.14;100.00;97581.16;4994032;28;20501;-80
2021/01/04 10:17:37;;;;;;;53.80;16.83;;;;;;;1.18;100.00;97588.41;4995379;28;20056;-78
2021/01/04 10:20:15;;;;;;;64.18;16.70;;;;;;;0.86;100.00;97584.94;4996468;28;20390;-77
2021/01/04 10:22:48;;;;;;;57.33;16.00;;;;;;;1.04;100.00;97595.22;5003441;28;20058;-77
2021/01/04 10:25:30;;;;;;;59.08;16.52;;;;;;;1.12;100.00;97594.75;4993604;28;20054;-80
2021/01/04 10:28:01;;;;;;;83.30;16.90;;;;;;;1.08;100.00;97600.84;4992196;28;20391;-78
2021/01/04 10:30:29;;;;;;;66.75;15.85;;;;;;;1.16;100.00;97592.38;4993698;28;20046;-78
2021/01/04 10:33:04;;;;;;;62.90;15.73;;;;;;;1.10;100.00;97588.06;4995180;28;20043;-78
2021/01/04 10:35:32;;;;;;;60.33;17.10;;;;;;;1.18;100.00;97593.72;4993008;28;20506;-78
2021/01/04 10:38:13;;;;;;;53.95;17.20;;;;;;;1.16;100.00;97585.16;4993310;28;20050;-78
2021/01/04 10:40:44;;;;;;;54.88;16.38;;;;;;;1.18;100.00;97569.75;4995126;28;20506;-79
2021/01/04 10:43:17;;;;;;;54.40;17.17;;;;;;;1.23;100.00;97580.44;4996723;28;20104;-80
2021/01/04 10:46:34;;;;;;;71.13;18.33;;;;;;;1.32;100.00;97574.63;4976966;28;20080;-78
2021/01/04 10:49:07;;;;;;;64.63;17.45;;;;;;;1.21;100.00;97563.88;4994963;28;20067;-77
2021/01/04 10:55:43;;;;;;;81.07;16.75;;;;;;;1.14;100.00;97562.50;4910685;29;20047;-78
2021/01/04 10:58:23;;;;;;;110.93;17.75;;;;;;;1.04;100.00;97575.75;4903429;29;20047;-78
2021/01/04 11:01:02;;;;;;;63.55;16.20;;;;;;;1.13;100.00;97550.25;4887625;29;20049;-78
2021/01/04 11:03:28;;;;;;;115.50;12.32;;;;;;;1.15;100.00;97569.44;4908104;29;20052;-79
2021/01/04 11:05:55;;;;;;;65.55;17.13;;;;;;;1.18;100.00;97561.75;4912524;29;20060;-79
2021/01/04 11:08:24;;;;;;;60.05;17.35;;;;;;;1.19;100.00;97563.34;4909643;29;20180;-79
2021/01/04 11:11:07;;;;;;;54.80;16.00;;;;;;;1.32;100.00;97558.63;4894531;29;20102;-77
2021/01/04 11:13:34;;;;;;;43.67;15.98;;;;;;;1.34;100.00;97561.84;4930647;29;20086;-79
2021/01/04 11:16:13;;;;;;;58.75;16.15;;;;;;;1.33;100.00;97554.88;4904506;29;20131;-77
2021/01/04 11:18:54;;;;;;;63.97;16.48;;;;;;;1.28;100.00;97547.66;4893040;29;20435;-78
2021/01/04 11:21:35;;;;;;;46.08;17.25;;;;;;;1.31;100.00;97544.50;4928889;29;20118;-80
2021/01/04 11:24:02;;;;;;;54.70;17.27;;;;;;;1.42;100.00;97540.81;4926299;29;20055;-78
2021/01/04 11:26:29;;;;;;;144.05;18.02;;;;;;;1.17;100.00;97541.47;4986319;28;20046;-80
2021/01/04 11:28:55;;;;;;;91.53;16.55;;;;;;;1.14;100.00;97544.63;5009349;28;20052;-77
2021/01/04 11:31:23;;;;;;;112.28;16.88;;;;;;;1.30;100.00;97552.72;5002424;28;20098;-80
2021/01/04 11:33:50;;;;;;;53.05;16.73;;;;;;;1.32;100.00;97539.97;4995963;28;20094;-78
2021/01/04 11:36:16;;;;;;;61.75;16.45;;;;;;;1.25;100.00;97540.97;4975803;28;20064;-79
2021/01/04 11:38:42;;;;;;;77.75;17.85;;;;;;;1.14;100.00;97538.50;4998959;28;20140;-79
2021/01/04 11:41:12;;;;;;;66.72;17.20;;;;;;;1.31;100.00;97543.69;5011461;28;20061;-78
2021/01/04 11:43:38;;;;;;;48.40;15.93;;;;;;;1.23;100.00;97529.78;5012268;28;20510;-79
2021/01/04 11:46:04;;;;;;;47.42;15.32;;;;;;;1.21;100.00;97528.44;4960667;28;20065;-78
2021/01/04 11:48:30;;;;;;;42.67;15.45;;;;;;;1.29;100.00;97541.28;4958628;28;20042;-79
2021/01/04 11:50:57;;;;;;;58.35;15.85;;;;;;;1.33;100.00;97549.56;4959171;28;20034;-81
2021/01/04 11:53:24;;;;;;;42.00;15.27;;;;;;;1.31;100.00;97543.69;4994043;28;20468;-78
2021/01/04 11:55:52;;;;;;;57.95;16.17;;;;;;;1.39;100.00;97553.88;5011973;28;20073;-78
2021/01/04 11:58:19;;;;;;;60.92;16.40;;;;;;;1.35;100.00;97550.09;4977933;28;20053;-79
2021/01/04 12:00:45;;;;;;;87.13;17.10;;;;;;;1.31;100.00;97541.81;4976278;28;20044;-79
2021/01/04 12:03:11;;;;;;;64.80;16.38;;;;;;;1.32;100.00;97543.41;5010689;28;20106;-78
2021/01/04 12:05:40;;;;;;;61.30;17.00;;;;;;;1.33;100.00;97541.56;4995619;28;20128;-79
2021/01/04 12:08:06;;;;;;;47.30;15.60;;;;;;;1.40;100.00;97529.59;5008447;28;20129;-79
2021/01/04 12:10:34;;;;;;;52.00;16.13;;;;;;;1.43;100.00;97534.41;5015467;28;20057;-79
2021/01/04 12:13:09;;;;;;;61.20;16.25;;;;;;;1.40;100.00;97537.59;4993851;28;20081;-79
2021/01/04 12:15:37;;;;;;;47.22;15.40;;;;;;;1.48;100.00;97529.09;4990153;28;20501;-78
2021/01/04 12:18:05;;;;;;;54.53;15.30;;;;;;;1.46;100.00;97543.75;4984989;28;20399;-78
2021/01/04 12:20:31;;;;;;;50.63;15.40;;;;;;;1.40;100.00;97529.59;4975021;28;20514;-78
2021/01/04 12:22:59;;;;;;;51.05;14.23;;;;;;;1.48;100.00;97530.97;4978874;28;20050;-77
2021/01/04 12:25:28;;;;;;;54.25;15.48;;;;;;;1.45;100.00;97526.94;4965166;28;20050;-78
2021/01/04 12:28:04;;;;;;;51.88;15.75;;;;;;;1.36;100.00;97533.84;4976136;28;20112;-80
2021/01/04 12:30:33;;;;;;;52.15;15.77;;;;;;;1.40;100.00;97520.78;4997638;28;20042;-79
2021/01/04 12:33:00;;;;;;;58.78;15.93;;;;;;;1.42;100.00;97527.47;5001131;28;20085;-79
2021/01/04 12:35:27;;;;;;;52.03;15.32;;;;;;;1.46;100.00;97511.75;4994865;28;20146;-79
2021/01/04 12:37:54;;;;;;;53.50;15.70;;;;;;;1.38;100.00;97517.59;5001130;28;20049;-77
2021/01/04 12:40:26;;;;;;;69.05;16.20;;;;;;;1.33;100.00;97509.56;4995065;28;20452;-80
2021/01/04 12:43:01;;;;;;;54.75;16.17;;;;;;;1.41;100.00;97525.88;4996198;28;20049;-80
2021/01/04 12:45:31;;;;;;;59.67;16.65;;;;;;;1.33;100.00;97510.38;4981468;28;20365;-79
2021/01/04 12:48:02;;;;;;;56.65;16.23;;;;;;;1.40;100.00;97526.13;4979136;28;20035;-76
2021/01/04 12:50:32;;;;;;;79.50;16.48;;;;;;;1.36;100.00;97523.19;4978299;28;20073;-78
2021/01/04 12:53:04;;;;;;;54.55;16.17;;;;;;;1.23;100.00;97535.13;4978058;28;20046;-77
2021/01/04 12:55:42;;;;;;;53.05;17.02;;;;;;;1.31;100.00;97520.50;4983016;28;20213;-80
2021/01/04 12:58:13;;;;;;;75.45;16.40;;;;;;;1.21;100.00;97515.88;4998800;28;20423;-79
2021/01/04 13:00:41;;;;;;;44.67;15.88;;;;;;;1.16;100.00;97510.53;4963315;28;20375;-79
2021/01/04 13:03:11;;;;;;;58.50;16.80;;;;;;;1.27;100.00;97527.38;4963415;28;20122;-78
2021/01/04 13:05:38;;;;;;;54.63;16.38;;;;;;;1.32;100.00;97523.97;4966510;28;20133;-78
2021/01/04 13:08:06;;;;;;;50.10;16.33;;;;;;;1.39;100.00;97516.53;4948683;28;20068;-81
2021/01/04 13:10:34;;;;;;;54.95;16.30;;;;;;;1.38;100.00;97526.38;4965302;28;20136;-80
2021/01/04 13:13:01;;;;;;;48.05;16.88;;;;;;;1.31;100.00;97525.81;4963956;28;20512;-79
2021/01/04 13:15:27;;;;;;;97.50;17.67;;;;;;;1.15;100.00;97516.94;4966255;28;20145;-80
2021/01/04 13:17:55;;;;;;;48.38;16.25;;;;;;;1.32;100.00;97524.75;4961469;28;20445;-79
2021/01/04 13:20:21;;;;;;;75.28;17.80;;;;;;;1.35;100.00;97524.22;4964783;28;20068;-79
2021/01/04 13:22:48;;;;;;;61.30;17.20;;;;;;;1.36;100.00;97515.19;4978961;28;20140;-80
2021/01/04 13:25:15;;;;;;;57.53;16.35;;;;;;;1.24;100.00;97514.56;4979672;28;20054;-79
2021/01/04 13:27:43;;;;;;;50.13;16.73;;;;;;;1.15;100.00;97527.59;4995537;28;20493;-80
2021/01/04 13:30:10;;;;;;;54.30;16.95;;;;;;;1.22;100.00;97535.34;4951950;28;20069;-77
2021/01/04 13:32:36;;;;;;;53.85;17.98;;;;;;;1.18;100.00;97508.44;4969869;28;20043;-77
2021/01/04 13:35:07;;;;;;;95.47;18.77;;;;;;;1.01;100.00;97514.94;4965755;28;20247;-78
2021/01/04 13:37:40;;;;;;;61.72;16.95;;;;;;;1.03;100.00;97504.88;4983598;23;20129;-78